Time;durP1;ratioP1;P1;durP2;ratioP2;P2;SDS_P1;SDS_P2;PMS_P1;PMS_P2;Temp;Humidity;BMP_temperature;BMP_pressure;BME280_temperature;BME280_humidity;BME280_pressure;Samples;Min_cycle;Max_cycle;Signal;HPM_P1;HPM_P2
2022/10/02 00:00:07;;;;;;;4.03;2.75;;;;;;;14.81;100.00;98667.73;1693507;83;22315;-70
2022/10/02 00:02:57;;;;;;;3.05;2.20;;;;;;;14.82;100.00;98663.30;1702242;83;21058;-69
2022/10/02 00:05:44;;;;;;;3.40;2.35;;;;;;;14.86;100.00;98668.94;1702381;83;21050;-69
2022/10/02 00:08:28;;;;;;;4.00;2.00;;;;;;;14.86;100.00;98669.75;1694226;84;21065;-69
2022/10/02 00:10:58;;;;;;;6.03;2.55;;;;;;;14.88;100.00;98676.26;1700241;83;21134;-68
2022/10/02 00:13:36;;;;;;;3.45;2.30;;;;;;;14.86;100.00;98668.38;1709701;83;20998;-69
2022/10/02 00:16:04;;;;;;;5.33;2.20;;;;;;;14.88;100.00;98668.84;1692420;83;21050;-69
2022/10/02 00:18:33;;;;;;;4.00;2.15;;;;;;;14.91;100.00;98661.34;1658475;85;21155;-70
2022/10/02 00:21:24;;;;;;;3.22;2.37;;;;;;;14.92;100.00;98667.63;1674097;84;21688;-69
2022/10/02 00:24:00;;;;;;;4.70;2.45;;;;;;;14.92;100.00;98656.67;1711708;82;21137;-68
2022/10/02 00:26:35;;;;;;;3.90;2.47;;;;;;;14.90;100.00;98657.02;1709307;82;21113;-68
2022/10/02 00:29:10;;;;;;;6.50;2.70;;;;;;;14.89;100.00;98651.84;1698892;84;21089;-69
2022/10/02 00:31:51;;;;;;;5.28;2.30;;;;;;;14.81;100.00;98641.70;1704700;83;21645;-73
2022/10/02 00:34:38;;;;;;;4.80;2.45;;;;;;;14.78;100.00;98634.14;1708764;82;21050;-68
2022/10/02 00:37:23;;;;;;;3.65;2.80;;;;;;;14.78;100.00;98640.98;1710692;82;21074;-70
2022/10/02 00:40:15;;;;;;;5.25;2.90;;;;;;;14.75;100.00;98636.16;1708755;83;21656;-72
2022/10/02 00:43:23;;;;;;;4.53;2.92;;;;;;;14.73;100.00;98614.59;1706064;84;21453;-68
2022/10/02 00:46:14;;;;;;;3.80;2.72;;;;;;;14.73;100.00;98607.74;1702838;82;21070;-70
2022/10/02 00:49:13;;;;;;;3.70;2.92;;;;;;;14.72;100.00;98599.28;1716070;83;21561;-69
2022/10/02 00:52:20;;;;;;;3.50;2.72;;;;;;;14.75;100.00;98589.59;1707343;83;21137;-72
2022/10/02 00:55:18;;;;;;;4.85;2.83;;;;;;;14.70;100.00;98579.61;1707201;82;21035;-69
2022/10/02 00:57:54;;;;;;;;;;;;;;;14.62;100.00;98572.23;1721716;82;21524;-69
2022/10/02 01:00:21;;;;;;;5.33;2.90;;;;;;;14.60;100.00;98557.23;1713068;83;20121;-69
2022/10/02 01:02:59;;;;;;;5.35;3.15;;;;;;;14.55;100.00;98561.53;1705551;84;21569;-73
2022/10/02 01:05:26;;;;;;;4.75;2.98;;;;;;;14.54;100.00;98560.73;1706635;82;21062;-70
2022/10/02 01:07:54;;;;;;;4.22;2.58;;;;;;;14.56;100.00;98554.94;1717123;82;21554;-68
2022/10/02 01:10:21;;;;;;;4.35;2.75;;;;;;;14.55;100.00;98541.00;1714526;82;21063;-70
2022/10/02 01:12:49;;;;;;;6.17;2.98;;;;;;;14.53;100.00;98540.50;1706949;84;21026;-71
2022/10/02 01:15:18;;;;;;;4.78;2.72;;;;;;;14.50;100.00;98537.05;1723236;81;21564;-70
2022/10/02 01:17:46;;;;;;;5.80;2.77;;;;;;;14.49;100.00;98543.68;1731919;81;21011;-69
2022/10/02 01:20:16;;;;;;;3.98;2.77;;;;;;;14.45;100.00;98538.83;1728652;83;21072;-70
2022/10/02 01:22:57;;;;;;;5.15;3.00;;;;;;;14.44;100.00;98531.77;1728880;83;21010;-70
2022/10/02 01:25:24;;;;;;;6.90;2.60;;;;;;;14.43;100.00;98529.34;1727334;81;21105;-70
2022/10/02 01:27:50;;;;;;;4.20;2.83;;;;;;;14.42;100.00;98522.25;1726798;81;21573;-70
2022/10/02 01:30:18;;;;;;;4.87;2.95;;;;;;;14.37;100.00;98513.67;1712565;83;21062;-69
2022/10/02 01:32:52;;;;;;;5.85;2.50;;;;;;;14.37;100.00;98508.19;1728835;82;21073;-71
2022/10/02 01:35:20;;;;;;;6.33;2.83;;;;;;;14.36;100.00;98502.47;1728850;81;21069;-70
2022/10/02 01:37:48;;;;;;;6.67;2.95;;;;;;;14.36;100.00;98502.47;1706969;81;21061;-72
2022/10/02 01:40:35;;;;;;;5.30;2.83;;;;;;;14.36;100.00;98497.00;1722054;82;21096;-74
2022/10/02 01:43:19;;;;;;;4.47;2.98;;;;;;;14.37;100.00;98489.59;1698210;84;21053;-69
2022/10/02 01:46:17;;;;;;;6.90;2.52;;;;;;;14.33;100.00;98477.09;1711636;83;21093;-72
2022/10/02 01:49:07;;;;;;;4.40;2.52;;;;;;;14.33;100.00;98479.02;1699413;84;21098;-68
2022/10/02 01:52:19;;;;;;;6.00;2.72;;;;;;;14.32;100.00;98465.08;1722216;83;21148;-68
2022/10/02 01:55:13;;;;;;;6.10;2.83;;;;;;;14.32;100.00;98457.68;1695968;84;21145;-69
2022/10/02 01:58:00;;;;;;;6.35;3.10;;;;;;;14.29;100.00;98442.47;1728710;81;21483;-69
2022/10/02 02:00:27;;;;;;;5.20;2.65;;;;;;;14.28;100.00;98442.23;1720977;83;21073;-68
2022/10/02 02:03:08;;;;;;;6.83;2.60;;;;;;;14.26;100.00;98439.84;1699702;84;20993;-72
2022/10/02 02:05:55;;;;;;;5.45;2.50;;;;;;;14.28;100.00;98427.17;1675307;83;21078;-70
2022/10/02 02:08:35;;;;;;;4.30;2.70;;;;;;;14.28;100.00;98426.61;1733098;81;20955;-74
2022/10/02 02:11:14;;;;;;;6.33;2.95;;;;;;;14.31;100.00;98429.28;1728933;83;21124;-70
2022/10/02 02:14:02;;;;;;;5.17;2.52;;;;;;;14.28;100.00;98411.55;1728874;83;21646;-69
2022/10/02 02:16:41;;;;;;;4.75;2.85;;;;;;;14.27;100.00;98407.23;1726258;81;21648;-71
2022/10/02 02:19:19;;;;;;;4.22;2.45;;;;;;;14.29;100.00;98402.78;1729073;81;21126;-72
2022/10/02 02:21:57;;;;;;;4.42;2.42;;;;;;;14.30;100.00;98396.19;1668244;84;21090;-67
2022/10/02 02:24:43;;;;;;;4.25;2.40;;;;;;;14.30;100.00;98395.63;1669199;84;22137;-69
2022/10/02 02:27:14;;;;;;;3.83;2.22;;;;;;;14.31;100.00;98384.89;1706022;83;21029;-71
2022/10/02 02:29:40;;;;;;;3.80;2.40;;;;;;;14.29;100.00;98387.73;1699538;83;21069;-67
2022/10/02 02:32:08;;;;;;;5.80;2.70;;;;;;;14.28;100.00;98381.45;1694457;84;21018;-72
2022/10/02 02:34:40;;;;;;;3.87;2.30;;;;;;;14.29;100.00;98378.95;1694085;84;21097;-69
2022/10/02 02:37:12;;;;;;;3.62;2.50;;;;;;;14.31;100.00;98373.16;1680400;83;21814;-67
2022/10/02 02:39:52;;;;;;;5.92;2.80;;;;;;;14.32;100.00;98364.61;1703924;83;21085;-70
2022/10/02 02:42:21;;;;;;;6.20;2.50;;;;;;;14.30;100.00;98357.30;1694317;84;21034;-67
2022/10/02 02:44:56;;;;;;;3.80;2.30;;;;;;;14.31;100.00;98354.00;1693984;83;21089;-71
2022/10/02 02:47:31;;;;;;;4.37;2.67;;;;;;;14.28;100.00;98344.50;1698328;83;21090;-67
2022/10/02 02:50:02;;;;;;;4.45;2.25;;;;;;;14.30;100.00;98340.88;1709843;83;21058;-69
2022/10/02 02:52:39;;;;;;;6.05;2.37;;;;;;;14.31;100.00;98339.73;1695176;84;20994;-70
2022/10/02 02:55:12;;;;;;;4.10;2.75;;;;;;;14.32;100.00;98326.28;1695175;83;21014;-73
2022/10/02 02:57:50;;;;;;;3.05;2.02;;;;;;;14.31;100.00;98328.78;1695741;83;21034;-69
2022/10/02 03:00:18;;;;;;;6.05;2.45;;;;;;;14.33;100.00;98328.45;1715969;83;21059;-69
2022/10/02 03:02:45;;;;;;;4.30;2.27;;;;;;;14.37;100.00;98317.13;1694961;84;21513;-68
2022/10/02 03:05:17;;;;;;;;;;;;;;;14.38;100.00;98311.30;1698773;84;21074;-72
2022/10/02 03:07:49;;;;;;;5.17;2.67;;;;;;;14.39;100.00;98315.65;1682158;84;20133;-71
2022/10/02 03:10:20;;;;;;;4.40;2.67;;;;;;;14.33;100.00;98319.69;1711452;83;21046;-71
2022/10/02 03:12:58;;;;;;;5.30;2.20;;;;;;;14.34;100.00;98321.33;1675381;85;21087;-72
2022/10/02 03:15:28;;;;;;;3.95;2.55;;;;;;;14.43;100.00;98322.63;1673837;85;21103;-71
2022/10/02 03:18:13;;;;;;;3.67;2.60;;;;;;;14.47;100.00;98310.45;1673977;85;21439;-70
2022/10/02 03:21:01;;;;;;;3.15;2.00;;;;;;;14.50;100.00;98326.22;1684828;83;21633;-70
2022/10/02 03:23:31;;;;;;;;;;;;;;;14.47;100.00;98328.25;1720340;83;21604;-71
2022/10/02 03:26:05;;;;;;;5.30;2.33;;;;;;;14.48;100.00;98332.04;1719758;83;20136;-71
2022/10/02 03:28:51;;;;;;;5.78;2.80;;;;;;;14.49;100.00;98324.63;1694782;81;21635;-70
2022/10/02 03:31:17;;;;;;;3.72;2.40;;;;;;;14.54;100.00;98312.91;1723949;81;21107;-71
2022/10/02 03:33:44;;;;;;;;;;;;;;;14.54;100.00;98302.52;1726436;83;22220;-71
2022/10/02 03:36:11;;;;;;;4.42;2.20;;;;;;;14.49;100.00;98308.20;1705164;83;20131;-71
2022/10/02 03:38:38;;;;;;;4.20;2.47;;;;;;;14.40;100.00;98317.83;1693027;85;22138;-71
2022/10/02 03:41:04;;;;;;;;;;;;;;;14.40;100.00;98320.00;1723183;81;21082;-71
2022/10/02 03:43:31;;;;;;;3.75;2.02;;;;;;;14.44;100.00;98320.14;1694932;84;20132;-71
2022/10/02 03:45:57;;;;;;;;;;;;;;;14.39;100.00;98315.65;1696156;83;21097;-71
2022/10/02 03:48:25;;;;;;;4.17;2.70;;;;;;;14.42;100.00;98308.70;1693187;85;20147;-71
2022/10/02 03:50:51;;;;;;;4.83;2.60;;;;;;;14.36;100.00;98292.23;1709884;81;21082;-71
2022/10/02 03:53:19;;;;;;;;;;;;;;;14.37;100.00;98296.03;1720742;82;21023;-71
2022/10/02 03:55:51;;;;;;;7.97;2.70;;;;;;;14.42;100.00;98290.34;1706807;83;20142;-71
2022/10/02 03:58:18;;;;;;;5.22;2.80;;;;;;;14.36;100.00;98284.03;1665133;85;21588;-71
2022/10/02 04:01:08;;;;;;;5.65;3.27;;;;;;;14.40;100.00;98288.52;1707377;81;21077;-71
2022/10/02 04:03:41;;;;;;;4.70;2.83;;;;;;;14.47;100.00;98285.25;1724456;81;21097;-71
2022/10/02 04:06:21;;;;;;;7.10;2.70;;;;;;;14.51;100.00;98277.17;1720899;82;21617;-71
2022/10/02 04:09:02;;;;;;;6.15;3.00;;;;;;;14.58;100.00;98276.08;1723652;83;21055;-70
2022/10/02 04:11:42;;;;;;;4.85;2.62;;;;;;;14.62;100.00;98272.91;1719988;81;21063;-70
2022/10/02 04:14:25;;;;;;;3.47;2.45;;;;;;;14.63;100.00;98261.61;1726182;81;21070;-70
2022/10/02 04:17:10;;;;;;;4.40;2.40;;;;;;;14.58;100.00;98251.44;1688727;85;21102;-70
2022/10/02 04:19:50;;;;;;;5.15;2.40;;;;;;;14.56;100.00;98250.98;1688551;85;21106;-70
2022/10/02 04:22:33;;;;;;;5.55;2.40;;;;;;;14.57;100.00;98237.50;1707691;83;21050;-70
2022/10/02 04:25:20;;;;;;;3.35;1.90;;;;;;;14.59;100.00;98231.14;1721715;82;21149;-70
2022/10/02 04:28:03;;;;;;;4.35;2.22;;;;;;;14.58;100.00;98229.53;1693006;85;21022;-72
2022/10/02 04:30:31;;;;;;;4.28;2.77;;;;;;;14.54;100.00;98223.91;1702615;83;21073;-73
2022/10/02 04:33:03;;;;;;;4.10;2.42;;;;;;;14.50;100.00;98216.70;1719675;81;21557;-70
2022/10/02 04:35:37;;;;;;;5.05;2.55;;;;;;;14.50;100.00;98200.27;1716103;81;21054;-70
2022/10/02 04:38:27;;;;;;;6.25;2.62;;;;;;;14.48;100.00;98195.70;1723892;83;21045;-71
2022/10/02 04:41:35;;;;;;;6.17;2.55;;;;;;;14.45;100.00;98190.34;1723588;83;21666;-70
2022/10/02 04:44:13;;;;;;;6.50;2.87;;;;;;;14.41;100.00;98185.30;1721396;81;21097;-70
2022/10/02 04:47:00;;;;;;;4.80;2.60;;;;;;;14.43;100.00;98178.34;1692628;84;21138;-69
2022/10/02 04:49:53;;;;;;;2.92;2.40;;;;;;;14.41;100.00;98177.89;1694820;84;21050;-69
2022/10/02 04:52:46;;;;;;;7.05;2.67;;;;;;;14.41;100.00;98176.52;1693386;84;21032;-69
2022/10/02 04:55:46;;;;;;;6.85;3.12;;;;;;;14.45;100.00;98171.17;1707771;81;21145;-69
2022/10/02 04:58:45;;;;;;;3.92;3.02;;;;;;;14.47;100.00;98168.09;1688533;85;21162;-69
2022/10/02 05:01:26;;;;;;;5.08;3.00;;;;;;;14.40;100.00;98170.80;1689026;85;21090;-69
2022/10/02 05:04:19;;;;;;;5.70;2.70;;;;;;;14.40;100.00;98162.59;1697836;83;21601;-69
2022/10/02 05:07:11;;;;;;;5.20;2.90;;;;;;;14.49;100.00;98153.51;1725312;81;21137;-69
2022/10/02 05:09:57;;;;;;;3.98;2.98;;;;;;;14.56;100.00;98136.75;1637937;86;21142;-70
2022/10/02 05:12:56;;;;;;;4.67;2.65;;;;;;;14.59;100.00;98132.55;1710576;83;21077;-67
2022/10/02 05:15:31;;;;;;;4.58;2.80;;;;;;;14.59;100.00;98138.03;1726335;81;21065;-67
2022/10/02 05:18:50;;;;;;;4.62;2.65;;;;;;;14.58;100.00;98168.72;1701524;84;20996;-68
2022/10/02 05:21:39;;;;;;;5.92;2.80;;;;;;;14.61;100.00;98178.19;1685181;84;21062;-67
2022/10/02 05:24:46;;;;;;;6.22;2.77;;;;;;;14.65;100.00;98174.45;1694910;84;20998;-68
2022/10/02 05:27:27;;;;;;;6.47;2.90;;;;;;;14.69;100.00;98166.37;1668627;85;21379;-67
2022/10/02 05:30:13;;;;;;;5.33;3.37;;;;;;;14.72;100.00;98157.47;1677927;85;21626;-67
2022/10/02 05:32:58;;;;;;;8.80;2.98;;;;;;;14.77;100.00;98147.69;1678004;85;20984;-68
2022/10/02 05:35:46;;;;;;;4.67;3.10;;;;;;;14.80;100.00;98141.53;1673139;85;21078;-68
2022/10/02 05:38:26;;;;;;;5.42;3.33;;;;;;;14.74;100.00;98145.60;1676644;85;21012;-67
2022/10/02 05:41:01;;;;;;;5.62;3.00;;;;;;;14.74;100.00;98156.55;1676385;85;21087;-66
2022/10/02 05:43:47;;;;;;;5.28;3.08;;;;;;;14.78;100.00;98161.59;1676615;85;21016;-69
2022/10/02 05:46:21;;;;;;;6.10;3.60;;;;;;;14.77;100.00;98158.05;1668562;84;21083;-69
2022/10/02 05:49:15;;;;;;;7.12;4.00;;;;;;;14.76;100.00;98155.67;1674770;85;22307;-70
2022/10/02 05:51:58;;;;;;;6.67;3.45;;;;;;;14.75;100.00;98137.62;1676300;85;21961;-71
2022/10/02 05:54:46;;;;;;;6.37;4.20;;;;;;;14.77;100.00;98133.41;1676456;85;21139;-72
2022/10/02 05:57:25;;;;;;;6.15;3.70;;;;;;;14.68;100.00;98136.00;1676734;84;21101;-72
2022/10/02 06:00:22;;;;;;;4.97;3.90;;;;;;;14.62;100.00;98123.10;1693900;84;21429;-72
2022/10/02 06:03:27;;;;;;;8.85;3.90;;;;;;;14.68;100.00;98122.30;1637930;87;21037;-71
2022/10/02 06:05:59;;;;;;;6.12;3.70;;;;;;;14.71;100.00;98107.94;1662360;85;21126;-72
2022/10/02 06:08:39;;;;;;;5.30;3.98;;;;;;;14.71;100.00;98101.09;1662828;85;21119;-72
2022/10/02 06:11:32;;;;;;;7.20;4.50;;;;;;;14.68;100.00;98094.92;1664455;85;21100;-72
2022/10/02 06:14:21;;;;;;;5.75;4.40;;;;;;;14.66;100.00;98088.99;1664893;86;21096;-72
2022/10/02 06:17:02;;;;;;;6.08;3.95;;;;;;;14.72;100.00;98083.52;1666206;85;21124;-71
2022/10/02 06:19:38;;;;;;;6.70;3.92;;;;;;;14.79;100.00;98076.36;1711333;83;20971;-71
2022/10/02 06:22:18;;;;;;;8.03;4.53;;;;;;;14.80;100.00;98079.91;1677394;83;21569;-72
2022/10/02 06:25:06;;;;;;;6.78;4.30;;;;;;;14.82;100.00;98076.23;1710484;82;20984;-72
2022/10/02 06:28:03;;;;;;;6.37;3.98;;;;;;;14.88;100.00;98080.35;1688938;85;20996;-72
2022/10/02 06:30:30;;;;;;;7.35;3.98;;;;;;;14.96;100.00;98082.20;1663871;85;21066;-72
2022/10/02 06:33:25;;;;;;;5.58;4.00;;;;;;;15.04;100.00;98084.05;1681703;85;21109;-72
2022/10/02 06:36:01;;;;;;;5.60;4.05;;;;;;;15.08;100.00;98072.64;1666152;85;21613;-72
2022/10/02 06:39:01;;;;;;;6.30;4.42;;;;;;;15.11;100.00;98072.52;1681948;85;21058;-72
2022/10/02 06:42:10;;;;;;;5.25;4.10;;;;;;;15.11;100.00;98069.78;1681189;85;21161;-72
2022/10/02 06:44:58;;;;;;;5.67;4.30;;;;;;;15.12;100.00;98068.65;1680933;85;21375;-72
2022/10/02 06:47:53;;;;;;;7.10;4.03;;;;;;;15.16;100.00;98065.45;1690309;84;21047;-72
2022/10/02 06:50:27;;;;;;;6.87;3.87;;;;;;;15.19;100.00;98062.03;1709003;83;21129;-71
2022/10/02 06:53:17;;;;;;;5.50;3.85;;;;;;;15.24;100.00;98056.30;1705973;83;21014;-71
2022/10/02 06:56:06;;;;;;;7.95;3.98;;;;;;;15.24;100.00;98054.36;1707130;82;21078;-72
2022/10/02 06:59:25;;;;;;;5.95;4.35;;;;;;;15.22;100.00;98055.86;1713010;82;21039;-72
2022/10/02 07:02:01;;;;;;;6.60;4.30;;;;;;;15.24;100.00;98053.56;1703255;83;21200;-72
2022/10/02 07:05:12;;;;;;;8.08;4.67;;;;;;;15.26;100.00;98048.55;1705428;84;21114;-72
2022/10/02 07:07:59;;;;;;;6.83;4.70;;;;;;;15.30;100.00;98050.84;1707565;82;21078;-71
2022/10/02 07:10:42;;;;;;;7.12;5.37;;;;;;;15.30;100.00;98052.21;1692205;83;21109;-72
2022/10/02 07:13:31;;;;;;;8.53;6.10;;;;;;;15.26;100.00;98048.55;1705277;84;21086;-71
2022/10/02 07:16:15;;;;;;;10.20;6.85;;;;;;;15.21;100.00;98045.46;1713683;83;21117;-70
2022/10/02 07:19:12;;;;;;;9.25;7.12;;;;;;;15.21;100.00;98048.20;1724814;81;21018;-70
2022/10/02 07:22:02;;;;;;;7.58;6.30;;;;;;;15.21;100.00;98047.40;1728738;83;21077;-67
2022/10/02 07:24:57;;;;;;;7.62;6.33;;;;;;;15.20;100.00;98041.67;1717878;83;21041;-71
2022/10/02 07:27:41;;;;;;;8.55;7.12;;;;;;;15.19;100.00;98045.02;1726726;81;21049;-68
2022/10/02 07:30:14;;;;;;;10.28;7.72;;;;;;;15.20;100.00;98043.05;1724488;81;21132;-68
2022/10/02 07:33:12;;;;;;;11.30;8.25;;;;;;;15.15;100.00;98033.70;1728684;81;21077;-68
2022/10/02 07:36:00;;;;;;;;;;;;;;;15.15;100.00;98048.20;1727636;83;21069;-68
2022/10/02 07:38:44;;;;;;;10.45;7.72;;;;;;;15.12;100.00;98045.35;1729420;81;20120;-68
2022/10/02 07:41:48;;;;;;;8.10;6.95;;;;;;;15.03;100.00;98042.70;1682576;84;21101;-68
2022/10/02 07:44:41;;;;;;;8.75;7.40;;;;;;;15.02;100.00;98038.36;1694086;84;21109;-68
2022/10/02 07:47:22;;;;;;;8.30;7.42;;;;;;;14.98;100.00;98041.58;1693716;84;21092;-70
2022/10/02 07:50:06;;;;;;;7.17;6.10;;;;;;;14.91;100.00;98024.91;1638039;85;21055;-71
2022/10/02 07:53:09;;;;;;;8.98;6.67;;;;;;;14.91;100.00;98029.02;1664833;86;21107;-68
2022/10/02 07:55:40;;;;;;;6.40;5.35;;;;;;;15.00;100.00;98026.95;1683662;84;21073;-69
2022/10/02 07:58:19;;;;;;;5.70;5.10;;;;;;;15.10;100.00;98024.33;1651732;85;21011;-70
2022/10/02 08:00:53;;;;;;;5.70;4.50;;;;;;;15.14;100.00;98020.56;1647396;85;21162;-71
2022/10/02 08:03:59;;;;;;;7.17;4.30;;;;;;;15.20;100.00;98021.92;1676427;85;21075;-70
2022/10/02 08:06:26;;;;;;;8.20;4.47;;;;;;;15.21;100.00;98022.16;1676027;84;21431;-70
2022/10/02 08:08:59;;;;;;;5.35;3.65;;;;;;;15.11;100.00;98008.92;1667089;85;21027;-71
2022/10/02 08:11:38;;;;;;;4.35;3.45;;;;;;;15.10;100.00;98005.14;1672493;85;21131;-71
2022/10/02 08:14:19;;;;;;;4.53;3.40;;;;;;;15.07;100.00;97998.98;1654620;85;21860;-68
2022/10/02 08:16:48;;;;;;;4.17;3.00;;;;;;;15.09;100.00;97997.48;1666040;85;21031;-71
2022/10/02 08:19:38;;;;;;;4.65;2.58;;;;;;;15.14;100.00;97998.64;1714426;82;21546;-71
2022/10/02 08:22:19;;;;;;;2.92;2.10;;;;;;;15.12;100.00;97992.72;1704962;83;21157;-68
2022/10/02 08:24:49;;;;;;;3.02;1.98;;;;;;;15.12;100.00;97985.86;1711814;82;21034;-68
2022/10/02 08:30:44;;;;;;;2.33;1.25;;;;;;;15.26;100.00;97969.06;1779573;79;23581;-68
2022/10/02 08:33:17;;;;;;;3.65;1.20;;;;;;;15.27;100.00;97975.55;1743939;82;21019;-72
2022/10/02 08:36:08;;;;;;;2.12;1.20;;;;;;;15.30;100.00;97978.97;1714785;82;21124;-72
2022/10/02 08:38:46;;;;;;;2.50;1.00;;;;;;;15.35;100.00;97970.52;1682672;83;21644;-67
2022/10/02 08:41:47;;;;;;;2.72;1.22;;;;;;;15.41;100.00;97969.12;1730675;82;21044;-68
2022/10/02 08:44:22;;;;;;;1.82;1.22;;;;;;;15.44;100.00;97968.44;1736230;82;21082;-68
2022/10/02 08:47:12;;;;;;;2.08;0.95;;;;;;;15.49;100.00;97971.55;1732074;82;21597;-67
2022/10/02 08:50:07;;;;;;;2.20;0.98;;;;;;;15.55;100.00;97974.88;1721052;83;21070;-68
2022/10/02 08:53:12;;;;;;;3.72;1.17;;;;;;;15.56;100.00;97975.07;1721403;83;21054;-69
2022/10/02 08:55:54;;;;;;;1.90;1.02;;;;;;;15.62;100.00;97973.14;1701265;82;21090;-69
2022/10/02 08:58:49;;;;;;;1.17;0.68;;;;;;;15.68;100.00;97977.23;1740069;82;20991;-74
2022/10/02 09:01:55;;;;;;;1.42;0.78;;;;;;;15.71;100.00;97976.53;1750779;82;22254;-71
2022/10/02 09:04:53;;;;;;;2.50;0.82;;;;;;;15.68;100.00;97971.74;1720141;82;21075;-70
2022/10/02 09:07:56;;;;;;;;;;;;;;;15.63;100.00;97971.17;1705431;82;21031;-72
2022/10/02 09:11:04;;;;;;;2.35;0.55;;;;;;;15.61;100.00;97973.47;1724817;82;20150;-72
2022/10/02 09:14:08;;;;;;;1.45;0.50;;;;;;;15.56;100.00;97976.44;1736208;82;21480;-68
2022/10/02 09:17:29;;;;;;;1.22;0.62;;;;;;;15.57;100.00;97971.19;1728903;82;21114;-70
2022/10/02 09:20:41;;;;;;;4.25;0.60;;;;;;;15.67;100.00;97973.45;1723263;82;21089;-69
2022/10/02 09:23:45;;;;;;;1.72;0.70;;;;;;;15.83;100.00;97977.07;1751386;82;21706;-69
2022/10/02 09:26:38;;;;;;;2.72;0.60;;;;;;;15.88;100.00;97964.46;1750197;82;21558;-68
2022/10/02 09:29:35;;;;;;;1.92;0.70;;;;;;;15.94;100.00;97966.60;1733152;82;21027;-75
2022/10/02 09:32:58;;;;;;;2.05;0.50;;;;;;;15.99;100.00;97969.68;1728002;82;21048;-69
2022/10/02 09:36:00;;;;;;;2.65;0.50;;;;;;;16.03;100.00;97967.84;1728655;82;21096;-67
2022/10/02 09:38:57;;;;;;;2.25;0.82;;;;;;;16.15;100.00;97971.91;1727662;82;20999;-69
2022/10/02 09:41:51;;;;;;;1.55;0.70;;;;;;;16.19;100.00;97963.77;1733772;81;21068;-73
2022/10/02 09:44:57;;;;;;;2.72;0.70;;;;;;;16.07;100.00;97963.25;1705872;82;21040;-75
2022/10/02 09:47:52;;;;;;;4.45;0.72;;;;;;;15.96;100.00;97957.23;1735862;82;21038;-70
2022/10/02 09:50:48;;;;;;;2.20;0.80;;;;;;;15.83;100.00;97965.53;1725317;82;21074;-68
2022/10/02 09:54:03;;;;;;;3.27;0.90;;;;;;;15.73;100.00;97961.11;1714878;82;21330;-74
2022/10/02 09:57:11;;;;;;;2.12;0.85;;;;;;;15.69;100.00;97954.15;1745099;82;21138;-68
2022/10/02 10:00:21;;;;;;;1.67;0.60;;;;;;;15.77;100.00;97954.55;1718457;82;21058;-74
2022/10/02 10:03:02;;;;;;;1.77;0.70;;;;;;;15.79;100.00;97966.00;1715803;83;21095;-77
2022/10/02 10:05:43;;;;;;;0.80;0.60;;;;;;;15.83;100.00;97963.36;1715613;82;21100;-70
2022/10/02 10:08:31;;;;;;;1.60;0.80;;;;;;;15.81;100.00;97957.40;1733497;82;21062;-75
2022/10/02 10:11:35;;;;;;;1.52;0.40;;;;;;;15.73;100.00;97955.63;1720822;82;21132;-71
2022/10/02 10:14:32;;;;;;;0.95;0.47;;;;;;;15.61;100.00;97974.28;1728303;82;21037;-73
2022/10/02 10:17:30;;;;;;;1.87;0.30;;;;;;;15.38;100.00;97979.42;1727689;82;21606;-72
2022/10/02 10:20:15;;;;;;;2.47;0.42;;;;;;;15.08;100.00;97972.62;1721200;82;21062;-67
2022/10/02 10:23:02;;;;;;;1.27;0.30;;;;;;;14.86;100.00;97973.87;1729313;82;21019;-68
2022/10/02 10:26:16;;;;;;;2.22;0.40;;;;;;;14.74;100.00;97984.00;1721497;82;21559;-70
2022/10/02 10:29:30;;;;;;;0.80;0.30;;;;;;;14.60;100.00;97984.89;1720463;82;21051;-70
2022/10/02 10:32:30;;;;;;;1.05;0.30;;;;;;;14.42;100.00;97984.30;1716007;82;21111;-73
2022/10/02 10:35:20;;;;;;;2.25;0.60;;;;;;;14.34;100.00;97998.33;1716485;82;21125;-70
2022/10/02 10:41:31;;;;;;;1.27;0.40;;;;;;;13.99;100.00;98001.70;1724517;82;21032;-68
2022/10/02 10:44:05;;;;;;;3.45;0.57;;;;;;;13.81;100.00;98007.88;1716215;82;20979;-67
2022/10/02 10:47:03;;;;;;;1.65;0.50;;;;;;;13.63;100.00;98014.05;1725034;82;21080;-71
2022/10/02 10:50:12;;;;;;;0.85;0.50;;;;;;;13.56;100.00;98004.78;1724368;82;21059;-70
2022/10/02 10:53:03;;;;;;;;;;;;;;;13.46;100.00;98016.33;1688061;84;21468;-73
2022/10/02 10:56:11;;;;;;;0.40;0.35;;;;;;;13.44;100.00;98020.53;1650156;86;20510;-71
2022/10/02 10:59:05;;;;;;;;;;;;;;;13.30;100.00;98032.27;1674290;84;21051;-72
2022/10/02 11:02:20;;;;;;;1.90;0.60;;;;;;;13.27;100.00;98021.44;1695383;84;20149;-68
2022/10/02 11:05:11;;;;;;;1.45;0.42;;;;;;;13.10;100.00;98026.20;1709526;84;21058;-71
2022/10/02 11:08:22;;;;;;;0.72;0.40;;;;;;;12.98;100.00;98023.56;1694185;84;21537;-70
2022/10/02 11:11:06;;;;;;;2.12;0.30;;;;;;;12.95;100.00;98020.69;1690110;84;21553;-71
2022/10/02 11:14:04;;;;;;;0.62;0.40;;;;;;;12.85;100.00;98012.88;1721312;82;21443;-69
2022/10/02 11:16:47;;;;;;;2.83;0.45;;;;;;;12.85;100.00;98021.87;1725678;82;21052;-68
2022/10/02 11:19:31;;;;;;;0.70;0.40;;;;;;;12.82;100.00;98012.94;1725583;83;20985;-70
2022/10/02 11:22:18;;;;;;;0.75;0.33;;;;;;;12.79;100.00;98030.55;1743869;82;21090;-67
2022/10/02 11:34:11;;;;;;;1.02;0.30;;;;;;;12.74;100.00;98026.64;1790863;79;28032;-69
2022/10/02 11:37:08;;;;;;;3.00;0.62;;;;;;;12.87;100.00;98029.16;1700756;83;21133;-69
2022/10/02 11:40:30;;;;;;;5.17;0.78;;;;;;;12.95;100.00;98031.62;1666554;84;21070;-72
2022/10/02 11:43:10;;;;;;;1.20;0.47;;;;;;;12.81;100.00;98026.94;1719389;83;21083;-72
2022/10/02 11:45:48;;;;;;;2.47;0.60;;;;;;;12.68;100.00;98024.64;1724133;82;21601;-74
2022/10/02 11:48:39;;;;;;;2.52;0.60;;;;;;;12.62;100.00;98028.68;1726266;83;21102;-71
2022/10/02 11:51:16;;;;;;;1.15;0.60;;;;;;;12.56;100.00;98027.82;1666216;84;21051;-70
2022/10/02 11:54:00;;;;;;;3.60;0.80;;;;;;;12.46;100.00;98038.53;1701070;83;21043;-70
2022/10/02 11:57:18;;;;;;;3.70;0.72;;;;;;;12.42;100.00;98028.83;1731445;81;21189;-71
2022/10/02 12:00:35;;;;;;;1.05;0.47;;;;;;;12.35;100.00;98028.52;1725806;82;21117;-71
2022/10/02 12:03:46;;;;;;;1.42;0.60;;;;;;;12.24;100.00;98009.52;1725857;83;21074;-74
2022/10/02 12:06:41;;;;;;;3.60;0.40;;;;;;;12.28;100.00;98008.31;1739287;81;21627;-71
2022/10/02 12:09:39;;;;;;;1.47;0.33;;;;;;;12.20;100.00;98009.13;1726122;83;21075;-73
2022/10/02 12:12:15;;;;;;;1.62;0.40;;;;;;;12.18;100.00;98000.47;1712946;83;21113;-68
2022/10/02 12:14:53;;;;;;;0.82;0.40;;;;;;;12.20;100.00;98000.38;1730084;81;21054;-72
2022/10/02 12:17:52;;;;;;;0.80;0.40;;;;;;;12.18;100.00;98002.64;1717817;83;21086;-71
2022/10/02 12:29:30;;;;;;;2.52;0.47;;;;;;;12.34;100.00;98015.19;1702962;83;20996;-71
2022/10/02 12:32:35;;;;;;;0.93;0.40;;;;;;;12.26;100.00;98001.80;1697324;83;21125;-67
2022/10/02 12:35:30;;;;;;;1.57;0.30;;;;;;;12.23;100.00;98016.66;1698453;84;21023;-70
2022/10/02 12:38:19;;;;;;;3.62;1.52;;;;;;;12.19;100.00;98012.97;1706886;83;20995;-69
2022/10/02 12:41:22;;;;;;;4.03;0.50;;;;;;;12.09;100.00;98012.75;1697645;83;21076;-75
2022/10/02 12:44:12;;;;;;;4.30;0.42;;;;;;;12.08;100.00;98022.05;1698046;83;21131;-71
2022/10/02 12:47:02;;;;;;;1.32;0.57;;;;;;;11.97;100.00;98020.21;1697656;83;21125;-71
2022/10/02 12:49:58;;;;;;;6.08;2.80;;;;;;;11.90;100.00;98002.77;1756195;80;21097;-68
2022/10/02 12:52:49;;;;;;;5.17;0.93;;;;;;;11.86;100.00;98022.24;1751358;82;21685;-75
2022/10/02 12:55:36;;;;;;;1.07;0.33;;;;;;;11.87;100.00;98026.00;1754927;80;21120;-70
2022/10/02 12:58:50;;;;;;;1.05;0.40;;;;;;;11.88;100.00;98011.80;1765503;80;21568;-71
2022/10/02 13:01:41;;;;;;;1.87;0.30;;;;;;;11.80;100.00;98016.69;1741909;80;21233;-75
2022/10/02 13:04:43;;;;;;;1.30;0.53;;;;;;;11.77;100.00;98011.88;1730088;83;21067;-72
2022/10/02 13:07:44;;;;;;;0.95;0.40;;;;;;;11.73;100.00;98006.83;1780168;80;21055;-71
2022/10/02 13:10:34;;;;;;;3.60;0.40;;;;;;;11.74;100.00;98018.78;1689759;83;21177;-72
2022/10/02 13:13:23;;;;;;;1.42;0.40;;;;;;;11.75;100.00;98008.69;1753839;81;21073;-68
2022/10/02 13:16:28;;;;;;;0.70;0.33;;;;;;;11.69;100.00;98001.77;1769003;80;21155;-75
2022/10/02 13:19:22;;;;;;;0.45;0.30;;;;;;;11.72;100.00;98008.78;1764883;80;21664;-73